sensor_id;sensor_type;location;lat;lon;timestamp;P1;durP1;ratioP1;P2;durP2;ratioP2
75520;SDS011;64102;48.628;9.002;2023-06-24T00:00:54;7.75;;;1.23;;
75520;SDS011;64102;48.628;9.002;2023-06-24T00:03:20;8.40;;;1.40;;
75520;SDS011;64102;48.628;9.002;2023-06-24T00:05:46;8.30;;;0.77;;
75520;SDS011;64102;48.628;9.002;2023-06-24T00:08:14;8.07;;;1.05;;
75520;SDS011;64102;48.628;9.002;2023-06-24T00:10:48;7.93;;;1.30;;
75520;SDS011;64102;48.628;9.002;2023-06-24T00:13:16;6.70;;;0.90;;
75520;SDS011;64102;48.628;9.002;2023-06-24T00:15:42;7.05;;;0.95;;
75520;SDS011;64102;48.628;9.002;2023-06-24T00:18:11;7.20;;;1.00;;
75520;SDS011;64102;48.628;9.002;2023-06-24T00:20:37;7.82;;;1.23;;
75520;SDS011;64102;48.628;9.002;2023-06-24T00:23:03;7.82;;;1.10;;
75520;SDS011;64102;48.628;9.002;2023-06-24T00:25:29;9.15;;;1.10;;
75520;SDS011;64102;48.628;9.002;2023-06-24T00:27:55;7.90;;;1.10;;
75520;SDS011;64102;48.628;9.002;2023-06-24T00:30:20;8.27;;;1.05;;
75520;SDS011;64102;48.628;9.002;2023-06-24T00:32:47;8.35;;;1.20;;
75520;SDS011;64102;48.628;9.002;2023-06-24T00:35:12;9.90;;;1.20;;
75520;SDS011;64102;48.628;9.002;2023-06-24T00:37:38;8.43;;;1.52;;
75520;SDS011;64102;48.628;9.002;2023-06-24T00:40:04;7.60;;;1.05;;
75520;SDS011;64102;48.628;9.002;2023-06-24T00:42:30;9.55;;;1.33;;
75520;SDS011;64102;48.628;9.002;2023-06-24T00:44:56;8.77;;;1.15;;
75520;SDS011;64102;48.628;9.002;2023-06-24T00:47:21;8.32;;;1.10;;
75520;SDS011;64102;48.628;9.002;2023-06-24T00:49:47;7.63;;;1.02;;
75520;SDS011;64102;48.628;9.002;2023-06-24T00:52:13;8.45;;;1.10;;
75520;SDS011;64102;48.628;9.002;2023-06-24T00:54:42;10.00;;;1.00;;
75520;SDS011;64102;48.628;9.002;2023-06-24T00:57:08;8.32;;;1.23;;
75520;SDS011;64102;48.628;9.002;2023-06-24T00:59:34;7.22;;;1.17;;
75520;SDS011;64102;48.628;9.002;2023-06-24T01:02:01;7.65;;;1.50;;
75520;SDS011;64102;48.628;9.002;2023-06-24T01:04:26;6.72;;;0.85;;
75520;SDS011;64102;48.628;9.002;2023-06-24T01:06:52;7.90;;;1.00;;
75520;SDS011;64102;48.628;9.002;2023-06-24T01:09:18;8.07;;;1.38;;
75520;SDS011;64102;48.628;9.002;2023-06-24T01:11:43;9.13;;;1.20;;
75520;SDS011;64102;48.628;9.002;2023-06-24T01:14:09;6.35;;;0.77;;
75520;SDS011;64102;48.628;9.002;2023-06-24T01:16:42;8.00;;;1.02;;
75520;SDS011;64102;48.628;9.002;2023-06-24T01:19:19;7.45;;;1.00;;
75520;SDS011;64102;48.628;9.002;2023-06-24T01:22:01;8.43;;;1.15;;
75520;SDS011;64102;48.628;9.002;2023-06-24T01:32:56;9.82;;;1.33;;
75520;SDS011;64102;48.628;9.002;2023-06-24T01:35:34;8.65;;;1.27;;
75520;SDS011;64102;48.628;9.002;2023-06-24T01:38:03;8.15;;;1.17;;
75520;SDS011;64102;48.628;9.002;2023-06-24T01:40:43;8.15;;;1.25;;
75520;SDS011;64102;48.628;9.002;2023-06-24T01:45:37;7.35;;;1.10;;
75520;SDS011;64102;48.628;9.002;2023-06-24T01:48:07;8.27;;;1.10;;
75520;SDS011;64102;48.628;9.002;2023-06-24T01:50:36;7.72;;;1.38;;
75520;SDS011;64102;48.628;9.002;2023-06-24T01:53:07;9.13;;;1.63;;
75520;SDS011;64102;48.628;9.002;2023-06-24T01:55:34;7.25;;;1.08;;
75520;SDS011;64102;48.628;9.002;2023-06-24T01:58:02;8.68;;;1.30;;
75520;SDS011;64102;48.628;9.002;2023-06-24T02:00:30;8.52;;;1.42;;
75520;SDS011;64102;48.628;9.002;2023-06-24T02:02:58;6.38;;;1.05;;
75520;SDS011;64102;48.628;9.002;2023-06-24T02:05:25;8.10;;;0.93;;
75520;SDS011;64102;48.628;9.002;2023-06-24T02:07:51;8.25;;;1.40;;
75520;SDS011;64102;48.628;9.002;2023-06-24T02:10:18;8.45;;;1.73;;
75520;SDS011;64102;48.628;9.002;2023-06-24T02:12:45;8.88;;;1.60;;
75520;SDS011;64102;48.628;9.002;2023-06-24T02:15:12;9.35;;;1.90;;
75520;SDS011;64102;48.628;9.002;2023-06-24T02:17:39;12.07;;;1.70;;
75520;SDS011;64102;48.628;9.002;2023-06-24T02:20:05;8.20;;;1.40;;
75520;SDS011;64102;48.628;9.002;2023-06-24T02:22:35;9.02;;;1.60;;
75520;SDS011;64102;48.628;9.002;2023-06-24T02:25:04;10.40;;;1.70;;
75520;SDS011;64102;48.628;9.002;2023-06-24T02:27:31;8.82;;;1.65;;
75520;SDS011;64102;48.628;9.002;2023-06-24T02:29:58;10.27;;;1.83;;
75520;SDS011;64102;48.628;9.002;2023-06-24T02:32:24;9.75;;;1.38;;
75520;SDS011;64102;48.628;9.002;2023-06-24T02:34:50;8.75;;;1.60;;
75520;SDS011;64102;48.628;9.002;2023-06-24T02:37:15;7.78;;;1.10;;
75520;SDS011;64102;48.628;9.002;2023-06-24T02:39:41;8.65;;;1.77;;
75520;SDS011;64102;48.628;9.002;2023-06-24T02:42:09;9.55;;;1.33;;
75520;SDS011;64102;48.628;9.002;2023-06-24T02:44:36;9.15;;;1.80;;
75520;SDS011;64102;48.628;9.002;2023-06-24T02:47:02;9.25;;;1.70;;
75520;SDS011;64102;48.628;9.002;2023-06-24T02:49:29;8.02;;;1.42;;
75520;SDS011;64102;48.628;9.002;2023-06-24T02:51:55;8.90;;;1.30;;
75520;SDS011;64102;48.628;9.002;2023-06-24T02:54:21;8.27;;;1.63;;
75520;SDS011;64102;48.628;9.002;2023-06-24T02:56:46;8.18;;;1.23;;
75520;SDS011;64102;48.628;9.002;2023-06-24T02:59:13;10.75;;;1.45;;
75520;SDS011;64102;48.628;9.002;2023-06-24T03:01:38;8.75;;;1.45;;
75520;SDS011;64102;48.628;9.002;2023-06-24T03:04:05;7.72;;;1.45;;
75520;SDS011;64102;48.628;9.002;2023-06-24T03:06:31;8.90;;;1.60;;
75520;SDS011;64102;48.628;9.002;2023-06-24T03:08:57;8.98;;;1.48;;
75520;SDS011;64102;48.628;9.002;2023-06-24T03:11:24;9.85;;;1.58;;
75520;SDS011;64102;48.628;9.002;2023-06-24T03:13:51;9.85;;;1.42;;
75520;SDS011;64102;48.628;9.002;2023-06-24T03:16:16;9.50;;;1.60;;
75520;SDS011;64102;48.628;9.002;2023-06-24T03:18:42;9.98;;;1.70;;
75520;SDS011;64102;48.628;9.002;2023-06-24T03:21:08;9.35;;;1.30;;
75520;SDS011;64102;48.628;9.002;2023-06-24T03:23:34;8.52;;;1.25;;
75520;SDS011;64102;48.628;9.002;2023-06-24T03:26:00;7.15;;;1.13;;
75520;SDS011;64102;48.628;9.002;2023-06-24T03:28:25;8.13;;;1.58;;
75520;SDS011;64102;48.628;9.002;2023-06-24T03:30:51;8.07;;;1.33;;
75520;SDS011;64102;48.628;9.002;2023-06-24T03:33:17;8.10;;;1.13;;
75520;SDS011;64102;48.628;9.002;2023-06-24T03:35:42;8.63;;;1.35;;
75520;SDS011;64102;48.628;9.002;2023-06-24T03:38:08;9.00;;;1.48;;
75520;SDS011;64102;48.628;9.002;2023-06-24T03:40:33;10.23;;;1.90;;
75520;SDS011;64102;48.628;9.002;2023-06-24T03:42:59;11.50;;;2.47;;
75520;SDS011;64102;48.628;9.002;2023-06-24T03:45:24;10.48;;;1.77;;
75520;SDS011;64102;48.628;9.002;2023-06-24T03:47:50;9.50;;;1.77;;
75520;SDS011;64102;48.628;9.002;2023-06-24T03:50:15;9.50;;;1.73;;
75520;SDS011;64102;48.628;9.002;2023-06-24T03:52:41;9.23;;;1.35;;
75520;SDS011;64102;48.628;9.002;2023-06-24T03:55:06;8.50;;;1.83;;
75520;SDS011;64102;48.628;9.002;2023-06-24T03:57:32;11.13;;;2.05;;
75520;SDS011;64102;48.628;9.002;2023-06-24T03:59:57;9.70;;;1.98;;
75520;SDS011;64102;48.628;9.002;2023-06-24T04:02:22;10.00;;;1.63;;
75520;SDS011;64102;48.628;9.002;2023-06-24T04:04:48;8.53;;;1.60;;
75520;SDS011;64102;48.628;9.002;2023-06-24T04:07:16;10.15;;;1.90;;
75520;SDS011;64102;48.628;9.002;2023-06-24T04:09:51;10.43;;;1.60;;
75520;SDS011;64102;48.628;9.002;2023-06-24T04:12:19;12.10;;;1.90;;
75520;SDS011;64102;48.628;9.002;2023-06-24T04:14:44;11.02;;;2.13;;
75520;SDS011;64102;48.628;9.002;2023-06-24T04:17:10;9.27;;;1.70;;
75520;SDS011;64102;48.628;9.002;2023-06-24T04:19:35;10.07;;;1.93;;
75520;SDS011;64102;48.628;9.002;2023-06-24T04:22:00;8.93;;;1.50;;
75520;SDS011;64102;48.628;9.002;2023-06-24T04:24:26;9.73;;;2.13;;
75520;SDS011;64102;48.628;9.002;2023-06-24T04:26:51;10.47;;;1.63;;
75520;SDS011;64102;48.628;9.002;2023-06-24T04:29:16;9.00;;;2.30;;
75520;SDS011;64102;48.628;9.002;2023-06-24T04:31:41;9.43;;;1.60;;
75520;SDS011;64102;48.628;9.002;2023-06-24T04:34:07;11.00;;;2.07;;
75520;SDS011;64102;48.628;9.002;2023-06-24T04:36:32;8.83;;;1.60;;
75520;SDS011;64102;48.628;9.002;2023-06-24T04:38:57;8.80;;;1.63;;
75520;SDS011;64102;48.628;9.002;2023-06-24T04:41:23;9.13;;;1.58;;
75520;SDS011;64102;48.628;9.002;2023-06-24T04:43:49;8.40;;;1.97;;
75520;SDS011;64102;48.628;9.002;2023-06-24T04:46:14;9.63;;;2.28;;
75520;SDS011;64102;48.628;9.002;2023-06-24T04:48:40;9.40;;;2.13;;
75520;SDS011;64102;48.628;9.002;2023-06-24T04:51:05;9.20;;;1.87;;
75520;SDS011;64102;48.628;9.002;2023-06-24T04:53:31;8.05;;;1.70;;
75520;SDS011;64102;48.628;9.002;2023-06-24T04:55:56;9.20;;;1.70;;
75520;SDS011;64102;48.628;9.002;2023-06-24T04:58:21;8.80;;;1.67;;
75520;SDS011;64102;48.628;9.002;2023-06-24T05:00:47;9.00;;;1.70;;
75520;SDS011;64102;48.628;9.002;2023-06-24T05:03:12;8.93;;;2.00;;
75520;SDS011;64102;48.628;9.002;2023-06-24T05:05:37;8.77;;;1.93;;
75520;SDS011;64102;48.628;9.002;2023-06-24T05:08:03;9.97;;;1.83;;
75520;SDS011;64102;48.628;9.002;2023-06-24T05:10:28;10.35;;;1.98;;
75520;SDS011;64102;48.628;9.002;2023-06-24T05:12:53;10.20;;;1.93;;
75520;SDS011;64102;48.628;9.002;2023-06-24T05:15:19;9.40;;;1.88;;
75520;SDS011;64102;48.628;9.002;2023-06-24T05:17:44;8.87;;;1.70;;
75520;SDS011;64102;48.628;9.002;2023-06-24T05:20:10;8.38;;;1.88;;
75520;SDS011;64102;48.628;9.002;2023-06-24T05:22:35;10.27;;;2.30;;
75520;SDS011;64102;48.628;9.002;2023-06-24T05:25:01;10.18;;;2.10;;
75520;SDS011;64102;48.628;9.002;2023-06-24T05:27:27;10.50;;;1.75;;
75520;SDS011;64102;48.628;9.002;2023-06-24T05:29:52;10.55;;;1.67;;
75520;SDS011;64102;48.628;9.002;2023-06-24T05:32:18;9.07;;;2.03;;
75520;SDS011;64102;48.628;9.002;2023-06-24T05:34:45;9.82;;;1.98;;
75520;SDS011;64102;48.628;9.002;2023-06-24T05:37:10;9.57;;;1.80;;
75520;SDS011;64102;48.628;9.002;2023-06-24T05:39:36;7.83;;;1.60;;
75520;SDS011;64102;48.628;9.002;2023-06-24T05:42:01;7.77;;;1.53;;
75520;SDS011;64102;48.628;9.002;2023-06-24T05:44:26;9.25;;;1.67;;
75520;SDS011;64102;48.628;9.002;2023-06-24T05:46:52;7.10;;;1.57;;
75520;SDS011;64102;48.628;9.002;2023-06-24T05:49:17;8.60;;;1.60;;
75520;SDS011;64102;48.628;9.002;2023-06-24T05:51:42;7.43;;;1.30;;
75520;SDS011;64102;48.628;9.002;2023-06-24T05:54:08;7.00;;;1.17;;
75520;SDS011;64102;48.628;9.002;2023-06-24T05:56:33;7.07;;;1.25;;
75520;SDS011;64102;48.628;9.002;2023-06-24T05:58:59;7.78;;;1.23;;
75520;SDS011;64102;48.628;9.002;2023-06-24T06:01:25;8.27;;;1.40;;
75520;SDS011;64102;48.628;9.002;2023-06-24T06:03:50;7.22;;;1.50;;
75520;SDS011;64102;48.628;9.002;2023-06-24T06:06:16;7.33;;;1.23;;
75520;SDS011;64102;48.628;9.002;2023-06-24T06:08:41;7.28;;;1.45;;
75520;SDS011;64102;48.628;9.002;2023-06-24T06:11:06;7.70;;;1.85;;
75520;SDS011;64102;48.628;9.002;2023-06-24T06:13:32;7.95;;;1.20;;
75520;SDS011;64102;48.628;9.002;2023-06-24T06:15:58;6.60;;;1.13;;
75520;SDS011;64102;48.628;9.002;2023-06-24T06:18:23;7.47;;;1.10;;
75520;SDS011;64102;48.628;9.002;2023-06-24T06:20:48;6.03;;;1.03;;
75520;SDS011;64102;48.628;9.002;2023-06-24T06:23:15;6.22;;;1.05;;
75520;SDS011;64102;48.628;9.002;2023-06-24T06:25:41;6.40;;;0.90;;
75520;SDS011;64102;48.628;9.002;2023-06-24T06:28:06;6.38;;;1.40;;
75520;SDS011;64102;48.628;9.002;2023-06-24T06:30:32;6.38;;;1.05;;
75520;SDS011;64102;48.628;9.002;2023-06-24T06:32:57;8.00;;;1.10;;
75520;SDS011;64102;48.628;9.002;2023-06-24T06:35:22;6.50;;;1.23;;
75520;SDS011;64102;48.628;9.002;2023-06-24T06:37:48;7.15;;;0.98;;
75520;SDS011;64102;48.628;9.002;2023-06-24T06:40:18;6.25;;;1.10;;
75520;SDS011;64102;48.628;9.002;2023-06-24T06:42:44;6.18;;;1.13;;
75520;SDS011;64102;48.628;9.002;2023-06-24T06:45:09;6.22;;;0.93;;
75520;SDS011;64102;48.628;9.002;2023-06-24T06:47:35;6.13;;;1.50;;
75520;SDS011;64102;48.628;9.002;2023-06-24T06:50:00;6.27;;;1.40;;
75520;SDS011;64102;48.628;9.002;2023-06-24T06:52:26;6.20;;;1.20;;
75520;SDS011;64102;48.628;9.002;2023-06-24T06:54:52;6.38;;;1.45;;
75520;SDS011;64102;48.628;9.002;2023-06-24T06:57:18;5.38;;;1.13;;
75520;SDS011;64102;48.628;9.002;2023-06-24T06:59:43;6.27;;;1.30;;
75520;SDS011;64102;48.628;9.002;2023-06-24T07:02:08;6.50;;;3.27;;
75520;SDS011;64102;48.628;9.002;2023-06-24T07:04:34;6.20;;;1.50;;
75520;SDS011;64102;48.628;9.002;2023-06-24T07:06:59;6.83;;;2.50;;
75520;SDS011;64102;48.628;9.002;2023-06-24T07:09:24;5.75;;;1.38;;
75520;SDS011;64102;48.628;9.002;2023-06-24T07:11:50;5.97;;;1.50;;
75520;SDS011;64102;48.628;9.002;2023-06-24T07:14:15;5.23;;;1.43;;
75520;SDS011;64102;48.628;9.002;2023-06-24T07:16:40;6.53;;;2.70;;
75520;SDS011;64102;48.628;9.002;2023-06-24T07:19:06;5.43;;;1.43;;
75520;SDS011;64102;48.628;9.002;2023-06-24T07:21:31;6.20;;;1.45;;
75520;SDS011;64102;48.628;9.002;2023-06-24T07:23:56;5.43;;;1.33;;
75520;SDS011;64102;48.628;9.002;2023-06-24T07:26:22;5.57;;;1.43;;
75520;SDS011;64102;48.628;9.002;2023-06-24T07:28:47;6.55;;;1.75;;
75520;SDS011;64102;48.628;9.002;2023-06-24T07:31:12;6.25;;;1.58;;
75520;SDS011;64102;48.628;9.002;2023-06-24T07:33:38;6.03;;;1.20;;
75520;SDS011;64102;48.628;9.002;2023-06-24T07:36:03;6.13;;;2.13;;
75520;SDS011;64102;48.628;9.002;2023-06-24T07:38:29;5.90;;;2.00;;
75520;SDS011;64102;48.628;9.002;2023-06-24T07:40:55;6.07;;;1.55;;
75520;SDS011;64102;48.628;9.002;2023-06-24T07:43:20;5.97;;;2.17;;
75520;SDS011;64102;48.628;9.002;2023-06-24T07:45:46;6.23;;;2.10;;
75520;SDS011;64102;48.628;9.002;2023-06-24T07:48:11;6.27;;;1.87;;
75520;SDS011;64102;48.628;9.002;2023-06-24T07:50:37;6.75;;;1.35;;
75520;SDS011;64102;48.628;9.002;2023-06-24T07:53:03;6.20;;;1.75;;
75520;SDS011;64102;48.628;9.002;2023-06-24T07:55:28;6.45;;;1.95;;
75520;SDS011;64102;48.628;9.002;2023-06-24T07:57:54;8.10;;;2.45;;
75520;SDS011;64102;48.628;9.002;2023-06-24T08:00:19;6.35;;;1.83;;
75520;SDS011;64102;48.628;9.002;2023-06-24T08:02:45;7.63;;;2.60;;
75520;SDS011;64102;48.628;9.002;2023-06-24T08:05:10;7.38;;;4.38;;
75520;SDS011;64102;48.628;9.002;2023-06-24T08:07:36;6.22;;;2.60;;
75520;SDS011;64102;48.628;9.002;2023-06-24T08:10:02;7.13;;;3.22;;
75520;SDS011;64102;48.628;9.002;2023-06-24T08:12:28;7.68;;;3.92;;
75520;SDS011;64102;48.628;9.002;2023-06-24T08:14:53;9.38;;;6.80;;
75520;SDS011;64102;48.628;9.002;2023-06-24T08:17:18;7.05;;;3.95;;
75520;SDS011;64102;48.628;9.002;2023-06-24T08:19:44;9.80;;;4.63;;
75520;SDS011;64102;48.628;9.002;2023-06-24T08:22:09;7.23;;;2.30;;
75520;SDS011;64102;48.628;9.002;2023-06-24T08:24:34;6.82;;;2.47;;
75520;SDS011;64102;48.628;9.002;2023-06-24T08:27:01;6.32;;;2.40;;
75520;SDS011;64102;48.628;9.002;2023-06-24T08:29:26;6.60;;;2.00;;
75520;SDS011;64102;48.628;9.002;2023-06-24T08:31:51;6.00;;;1.77;;
75520;SDS011;64102;48.628;9.002;2023-06-24T08:34:17;7.70;;;2.73;;
75520;SDS011;64102;48.628;9.002;2023-06-24T08:36:42;6.68;;;2.25;;
75520;SDS011;64102;48.628;9.002;2023-06-24T08:39:07;6.23;;;2.43;;
75520;SDS011;64102;48.628;9.002;2023-06-24T08:41:33;5.80;;;1.95;;
75520;SDS011;64102;48.628;9.002;2023-06-24T08:43:58;8.52;;;3.55;;
75520;SDS011;64102;48.628;9.002;2023-06-24T08:46:24;10.18;;;3.67;;
75520;SDS011;64102;48.628;9.002;2023-06-24T08:48:53;7.07;;;3.78;;
75520;SDS011;64102;48.628;9.002;2023-06-24T08:51:23;7.47;;;4.55;;
75520;SDS011;64102;48.628;9.002;2023-06-24T08:53:52;6.20;;;3.58;;
75520;SDS011;64102;48.628;9.002;2023-06-24T08:56:18;6.78;;;4.15;;
75520;SDS011;64102;48.628;9.002;2023-06-24T08:58:44;6.40;;;3.97;;
75520;SDS011;64102;48.628;9.002;2023-06-24T09:01:11;7.00;;;3.67;;
75520;SDS011;64102;48.628;9.002;2023-06-24T09:03:37;6.90;;;3.42;;
75520;SDS011;64102;48.628;9.002;2023-06-24T09:06:03;7.10;;;3.42;;
75520;SDS011;64102;48.628;9.002;2023-06-24T09:08:28;8.40;;;6.57;;
75520;SDS011;64102;48.628;9.002;2023-06-24T09:10:56;36.37;;;11.52;;
75520;SDS011;64102;48.628;9.002;2023-06-24T09:13:21;19.30;;;7.55;;
75520;SDS011;64102;48.628;9.002;2023-06-24T09:15:58;15.02;;;9.18;;
75520;SDS011;64102;48.628;9.002;2023-06-24T09:18:30;7.27;;;5.70;;
75520;SDS011;64102;48.628;9.002;2023-06-24T09:20:56;7.13;;;4.20;;
75520;SDS011;64102;48.628;9.002;2023-06-24T09:23:21;7.83;;;6.70;;
75520;SDS011;64102;48.628;9.002;2023-06-24T09:25:57;7.25;;;4.88;;
75520;SDS011;64102;48.628;9.002;2023-06-24T09:28:26;8.45;;;4.53;;
75520;SDS011;64102;48.628;9.002;2023-06-24T09:31:07;8.55;;;4.88;;
75520;SDS011;64102;48.628;9.002;2023-06-24T09:33:34;7.18;;;5.47;;
75520;SDS011;64102;48.628;9.002;2023-06-24T09:36:01;6.80;;;3.38;;
75520;SDS011;64102;48.628;9.002;2023-06-24T09:38:34;8.57;;;7.68;;
75520;SDS011;64102;48.628;9.002;2023-06-24T09:41:01;7.38;;;4.88;;
75520;SDS011;64102;48.628;9.002;2023-06-24T09:43:29;8.30;;;7.32;;
75520;SDS011;64102;48.628;9.002;2023-06-24T09:45:55;8.88;;;5.47;;
75520;SDS011;64102;48.628;9.002;2023-06-24T09:48:21;7.32;;;3.35;;
75520;SDS011;64102;48.628;9.002;2023-06-24T09:50:46;7.60;;;5.00;;
75520;SDS011;64102;48.628;9.002;2023-06-24T09:53:12;8.20;;;6.82;;
75520;SDS011;64102;48.628;9.002;2023-06-24T09:55:38;6.53;;;3.95;;
75520;SDS011;64102;48.628;9.002;2023-06-24T10:00:35;7.32;;;5.80;;
75520;SDS011;64102;48.628;9.002;2023-06-24T10:03:01;6.82;;;4.18;;
75520;SDS011;64102;48.628;9.002;2023-06-24T10:05:27;8.15;;;3.50;;
75520;SDS011;64102;48.628;9.002;2023-06-24T10:07:53;6.93;;;4.07;;
75520;SDS011;64102;48.628;9.002;2023-06-24T10:10:18;6.75;;;5.05;;
75520;SDS011;64102;48.628;9.002;2023-06-24T10:12:44;6.85;;;4.90;;
75520;SDS011;64102;48.628;9.002;2023-06-24T10:15:09;7.47;;;6.68;;
75520;SDS011;64102;48.628;9.002;2023-06-24T10:17:35;8.38;;;5.47;;
75520;SDS011;64102;48.628;9.002;2023-06-24T10:20:05;6.97;;;4.68;;
75520;SDS011;64102;48.628;9.002;2023-06-24T10:22:31;7.30;;;3.95;;
75520;SDS011;64102;48.628;9.002;2023-06-24T10:25:01;7.65;;;6.38;;
75520;SDS011;64102;48.628;9.002;2023-06-24T10:27:27;6.95;;;5.35;;
75520;SDS011;64102;48.628;9.002;2023-06-24T10:29:57;7.15;;;4.57;;
75520;SDS011;64102;48.628;9.002;2023-06-24T10:32:28;8.00;;;6.45;;
75520;SDS011;64102;48.628;9.002;2023-06-24T10:35:05;7.50;;;5.65;;
75520;SDS011;64102;48.628;9.002;2023-06-24T10:37:31;7.53;;;5.82;;
75520;SDS011;64102;48.628;9.002;2023-06-24T10:39:58;7.45;;;5.50;;
75520;SDS011;64102;48.628;9.002;2023-06-24T10:42:31;6.78;;;3.08;;
75520;SDS011;64102;48.628;9.002;2023-06-24T10:45:00;6.55;;;3.78;;
75520;SDS011;64102;48.628;9.002;2023-06-24T10:47:28;7.68;;;3.17;;
75520;SDS011;64102;48.628;9.002;2023-06-24T10:49:54;7.88;;;5.18;;
75520;SDS011;64102;48.628;9.002;2023-06-24T10:52:21;8.65;;;7.00;;
75520;SDS011;64102;48.628;9.002;2023-06-24T10:54:48;8.23;;;6.70;;
75520;SDS011;64102;48.628;9.002;2023-06-24T10:57:14;6.15;;;4.13;;
75520;SDS011;64102;48.628;9.002;2023-06-24T10:59:46;7.43;;;5.13;;
75520;SDS011;64102;48.628;9.002;2023-06-24T11:02:13;8.10;;;7.30;;
75520;SDS011;64102;48.628;9.002;2023-06-24T11:04:49;6.15;;;3.20;;
75520;SDS011;64102;48.628;9.002;2023-06-24T11:07:19;7.03;;;4.75;;
75520;SDS011;64102;48.628;9.002;2023-06-24T11:09:52;5.80;;;2.97;;
75520;SDS011;64102;48.628;9.002;2023-06-24T11:12:18;7.10;;;3.35;;
75520;SDS011;64102;48.628;9.002;2023-06-24T11:17:13;6.80;;;4.13;;
75520;SDS011;64102;48.628;9.002;2023-06-24T11:19:38;7.45;;;4.57;;
75520;SDS011;64102;48.628;9.002;2023-06-24T11:22:05;6.75;;;3.08;;
75520;SDS011;64102;48.628;9.002;2023-06-24T11:24:32;8.32;;;7.53;;
75520;SDS011;64102;48.628;9.002;2023-06-24T11:26:58;8.30;;;6.05;;
75520;SDS011;64102;48.628;9.002;2023-06-24T11:29:23;6.32;;;3.97;;
75520;SDS011;64102;48.628;9.002;2023-06-24T11:31:49;7.00;;;4.00;;
75520;SDS011;64102;48.628;9.002;2023-06-24T11:34:16;9.75;;;8.85;;
75520;SDS011;64102;48.628;9.002;2023-06-24T11:36:42;6.43;;;3.65;;
75520;SDS011;64102;48.628;9.002;2023-06-24T11:39:07;6.72;;;3.63;;
75520;SDS011;64102;48.628;9.002;2023-06-24T11:41:33;6.88;;;2.35;;
75520;SDS011;64102;48.628;9.002;2023-06-24T11:43:58;8.02;;;5.78;;
75520;SDS011;64102;48.628;9.002;2023-06-24T11:46:25;6.80;;;5.13;;
75520;SDS011;64102;48.628;9.002;2023-06-24T11:49:04;7.55;;;5.93;;
75520;SDS011;64102;48.628;9.002;2023-06-24T11:51:30;7.63;;;6.78;;
75520;SDS011;64102;48.628;9.002;2023-06-24T11:53:58;8.43;;;5.65;;
75520;SDS011;64102;48.628;9.002;2023-06-24T11:56:38;6.70;;;5.30;;
75520;SDS011;64102;48.628;9.002;2023-06-24T11:59:05;5.27;;;1.13;;
75520;SDS011;64102;48.628;9.002;2023-06-24T12:01:34;6.30;;;3.22;;
75520;SDS011;64102;48.628;9.002;2023-06-24T12:04:12;6.47;;;3.17;;
75520;SDS011;64102;48.628;9.002;2023-06-24T12:06:42;5.15;;;2.50;;
75520;SDS011;64102;48.628;9.002;2023-06-24T12:09:09;6.97;;;5.70;;
75520;SDS011;64102;48.628;9.002;2023-06-24T12:11:35;6.90;;;4.03;;
75520;SDS011;64102;48.628;9.002;2023-06-24T12:14:01;7.25;;;5.43;;
75520;SDS011;64102;48.628;9.002;2023-06-24T12:16:27;6.32;;;4.88;;
75520;SDS011;64102;48.628;9.002;2023-06-24T12:18:52;13.15;;;4.13;;
75520;SDS011;64102;48.628;9.002;2023-06-24T12:21:19;5.50;;;2.78;;
75520;SDS011;64102;48.628;9.002;2023-06-24T12:23:44;7.82;;;6.00;;
75520;SDS011;64102;48.628;9.002;2023-06-24T12:26:10;7.20;;;6.50;;
75520;SDS011;64102;48.628;9.002;2023-06-24T12:28:36;6.63;;;3.60;;
75520;SDS011;64102;48.628;9.002;2023-06-24T12:31:01;6.53;;;3.08;;
75520;SDS011;64102;48.628;9.002;2023-06-24T12:33:27;6.72;;;4.43;;
75520;SDS011;64102;48.628;9.002;2023-06-24T12:35:56;6.27;;;3.07;;
75520;SDS011;64102;48.628;9.002;2023-06-24T12:38:22;7.25;;;5.13;;
75520;SDS011;64102;48.628;9.002;2023-06-24T12:40:47;6.03;;;3.22;;
75520;SDS011;64102;48.628;9.002;2023-06-24T12:43:13;5.55;;;2.90;;
75520;SDS011;64102;48.628;9.002;2023-06-24T12:45:39;6.78;;;3.75;;
75520;SDS011;64102;48.628;9.002;2023-06-24T12:48:05;5.63;;;2.00;;
75520;SDS011;64102;48.628;9.002;2023-06-24T12:50:30;6.43;;;4.38;;
75520;SDS011;64102;48.628;9.002;2023-06-24T12:52:57;6.40;;;3.10;;
75520;SDS011;64102;48.628;9.002;2023-06-24T12:55:22;7.10;;;3.85;;
75520;SDS011;64102;48.628;9.002;2023-06-24T12:57:48;6.27;;;3.23;;
75520;SDS011;64102;48.628;9.002;2023-06-24T13:00:13;6.20;;;4.15;;
75520;SDS011;64102;48.628;9.002;2023-06-24T13:02:39;6.22;;;3.28;;
75520;SDS011;64102;48.628;9.002;2023-06-24T13:05:04;7.03;;;4.03;;
75520;SDS011;64102;48.628;9.002;2023-06-24T13:07:30;6.55;;;3.85;;
75520;SDS011;64102;48.628;9.002;2023-06-24T13:09:55;6.82;;;3.50;;
75520;SDS011;64102;48.628;9.002;2023-06-24T13:12:21;6.47;;;4.97;;
75520;SDS011;64102;48.628;9.002;2023-06-24T13:14:47;5.95;;;1.98;;
75520;SDS011;64102;48.628;9.002;2023-06-24T13:17:12;6.68;;;1.95;;
75520;SDS011;64102;48.628;9.002;2023-06-24T13:19:38;6.55;;;2.80;;
75520;SDS011;64102;48.628;9.002;2023-06-24T13:22:03;4.87;;;2.10;;
75520;SDS011;64102;48.628;9.002;2023-06-24T13:24:29;6.30;;;2.35;;
75520;SDS011;64102;48.628;9.002;2023-06-24T13:26:54;5.20;;;1.40;;
75520;SDS011;64102;48.628;9.002;2023-06-24T13:29:20;6.47;;;2.70;;
75520;SDS011;64102;48.628;9.002;2023-06-24T13:31:46;6.00;;;3.05;;
75520;SDS011;64102;48.628;9.002;2023-06-24T13:34:11;7.82;;;6.47;;
75520;SDS011;64102;48.628;9.002;2023-06-24T13:36:39;7.97;;;6.22;;
75520;SDS011;64102;48.628;9.002;2023-06-24T13:39:06;8.63;;;7.72;;
75520;SDS011;64102;48.628;9.002;2023-06-24T13:41:33;6.15;;;3.75;;
75520;SDS011;64102;48.628;9.002;2023-06-24T13:44:02;5.65;;;3.25;;
75520;SDS011;64102;48.628;9.002;2023-06-24T13:46:29;5.65;;;1.75;;
75520;SDS011;64102;48.628;9.002;2023-06-24T13:48:55;5.63;;;1.65;;
75520;SDS011;64102;48.628;9.002;2023-06-24T13:51:21;5.28;;;1.90;;
75520;SDS011;64102;48.628;9.002;2023-06-24T13:53:48;6.20;;;2.63;;
75520;SDS011;64102;48.628;9.002;2023-06-24T13:56:15;5.78;;;1.95;;
75520;SDS011;64102;48.628;9.002;2023-06-24T13:58:41;6.10;;;2.55;;
75520;SDS011;64102;48.628;9.002;2023-06-24T14:01:06;6.07;;;2.10;;
75520;SDS011;64102;48.628;9.002;2023-06-24T14:03:31;6.07;;;2.27;;
75520;SDS011;64102;48.628;9.002;2023-06-24T14:05:57;6.30;;;2.28;;
75520;SDS011;64102;48.628;9.002;2023-06-24T14:08:23;6.82;;;2.08;;
75520;SDS011;64102;48.628;9.002;2023-06-24T14:10:48;6.80;;;3.80;;
75520;SDS011;64102;48.628;9.002;2023-06-24T14:13:14;6.45;;;3.50;;
75520;SDS011;64102;48.628;9.002;2023-06-24T14:15:40;7.25;;;4.72;;
75520;SDS011;64102;48.628;9.002;2023-06-24T14:18:06;5.72;;;1.65;;
75520;SDS011;64102;48.628;9.002;2023-06-24T14:20:31;5.43;;;2.28;;
75520;SDS011;64102;48.628;9.002;2023-06-24T14:22:57;6.07;;;1.63;;
75520;SDS011;64102;48.628;9.002;2023-06-24T14:25:22;6.18;;;1.83;;
75520;SDS011;64102;48.628;9.002;2023-06-24T14:27:49;4.93;;;1.33;;
75520;SDS011;64102;48.628;9.002;2023-06-24T14:30:14;6.03;;;1.77;;
75520;SDS011;64102;48.628;9.002;2023-06-24T14:32:40;6.32;;;1.45;;
75520;SDS011;64102;48.628;9.002;2023-06-24T14:35:05;5.53;;;1.17;;
75520;SDS011;64102;48.628;9.002;2023-06-24T14:37:31;5.75;;;1.10;;
75520;SDS011;64102;48.628;9.002;2023-06-24T14:39:57;5.95;;;1.10;;
75520;SDS011;64102;48.628;9.002;2023-06-24T14:42:22;5.70;;;1.50;;
75520;SDS011;64102;48.628;9.002;2023-06-24T14:44:47;5.43;;;1.90;;
75520;SDS011;64102;48.628;9.002;2023-06-24T14:47:13;6.60;;;2.69;;
75520;SDS011;64102;48.628;9.002;2023-06-24T14:49:38;4.70;;;1.00;;
75520;SDS011;64102;48.628;9.002;2023-06-24T14:52:03;6.10;;;1.80;;
75520;SDS011;64102;48.628;9.002;2023-06-24T14:54:29;5.85;;;1.67;;
75520;SDS011;64102;48.628;9.002;2023-06-24T14:56:54;6.87;;;2.63;;